Time;durP1;ratioP1;P1;durP2;ratioP2;P2;SDS_P1;SDS_P2;PMS_P1;PMS_P2;Temp;Humidity;BMP_temperature;BMP_pressure;BME280_temperature;BME280_humidity;BME280_pressure;Samples;Min_cycle;Max_cycle;Signal;HPM_P1;HPM_P2
2021/12/06 00:00:22;;;;;;;3.60;2.70;;;4.80;99.90;;;;;;5073769;28;20529;-86
2021/12/06 00:02:51;;;;;;;5.77;3.10;;;4.80;99.90;;;;;;5059789;28;20440;-86
2021/12/06 00:05:18;;;;;;;6.87;3.83;;;4.70;99.90;;;;;;5060634;28;20831;-86
2021/12/06 00:07:45;;;;;;;3.60;3.10;;;4.70;99.90;;;;;;5060147;28;20452;-86
2021/12/06 00:10:13;;;;;;;7.37;3.00;;;4.70;99.90;;;;;;5059543;28;20854;-86
2021/12/06 00:12:41;;;;;;;4.67;3.20;;;4.60;99.90;;;;;;5074800;28;20452;-86
2021/12/06 00:15:09;;;;;;;3.33;2.57;;;4.50;99.90;;;;;;5078248;28;20453;-86
2021/12/06 00:17:37;;;;;;;3.67;3.03;;;4.50;99.90;;;;;;5060462;28;20491;-86
2021/12/06 00:20:07;;;;;;;4.20;2.83;;;4.40;99.90;;;;;;5072772;28;20471;-86
2021/12/06 00:22:33;;;;;;;4.60;3.33;;;4.40;99.90;;;;;;5078833;28;21015;-86
2021/12/06 00:25:00;;;;;;;8.97;3.70;;;4.30;99.90;;;;;;5076052;28;20453;-86
2021/12/06 00:27:28;;;;;;;4.73;3.40;;;4.20;99.90;;;;;;5062226;28;20444;-86
2021/12/06 00:29:55;;;;;;;5.00;3.90;;;4.10;99.90;;;;;;5071018;28;20573;-86
2021/12/06 00:32:23;;;;;;;4.77;3.80;;;4.00;99.90;;;;;;5078328;28;20510;-86
2021/12/06 00:34:51;;;;;;;8.90;3.87;;;3.90;99.90;;;;;;5068390;28;20516;-86
2021/12/06 00:37:20;;;;;;;3.50;3.13;;;3.80;99.90;;;;;;5061537;28;20484;-86
2021/12/06 00:39:50;;;;;;;9.13;3.27;;;3.70;99.90;;;;;;5064385;28;20468;-85
2021/12/06 00:42:17;;;;;;;4.73;3.67;;;3.50;99.90;;;;;;5060165;28;20877;-85
2021/12/06 00:44:44;;;;;;;8.60;4.87;;;3.50;99.90;;;;;;5059277;28;20535;-85
2021/12/06 00:47:11;;;;;;;3.83;2.73;;;3.40;99.90;;;;;;5058406;28;20452;-85
2021/12/06 00:49:38;;;;;;;4.13;2.70;;;3.30;99.90;;;;;;5058258;28;20486;-84
2021/12/06 00:52:08;;;;;;;5.00;3.50;;;3.30;99.90;;;;;;5057563;28;20535;-85
2021/12/06 00:54:35;;;;;;;4.77;2.97;;;3.10;99.90;;;;;;5062036;28;20900;-85
2021/12/06 00:57:05;;;;;;;4.63;3.03;;;3.00;99.90;;;;;;5064828;28;20533;-84
2021/12/06 00:59:31;;;;;;;4.70;4.20;;;3.00;99.90;;;;;;5057933;28;20472;-85
2021/12/06 01:02:00;;;;;;;3.60;2.47;;;3.00;99.90;;;;;;5057301;28;20448;-85
2021/12/06 01:04:27;;;;;;;5.03;3.60;;;3.00;99.90;;;;;;5074431;28;21029;-85
2021/12/06 01:06:54;;;;;;;4.90;3.10;;;2.90;99.90;;;;;;5066550;28;20450;-86
2021/12/06 01:09:22;;;;;;;4.43;3.40;;;2.90;99.90;;;;;;5072784;28;20543;-84
2021/12/06 01:11:50;;;;;;;5.10;3.43;;;2.70;99.90;;;;;;5076348;28;20501;-85
2021/12/06 01:14:16;;;;;;;6.10;4.30;;;2.60;99.90;;;;;;5063264;28;20519;-85
2021/12/06 01:16:43;;;;;;;5.55;4.20;;;2.60;99.90;;;;;;5056798;28;20566;-85
2021/12/06 01:19:10;;;;;;;6.80;3.60;;;2.50;99.90;;;;;;5057157;28;20197;-83
2021/12/06 01:21:45;;;;;;;5.20;3.70;;;2.50;99.90;;;;;;5057819;28;20455;-85
2021/12/06 01:24:16;;;;;;;6.00;3.27;;;2.40;99.90;;;;;;5058126;28;20689;-84
2021/12/06 01:27:13;;;;;;;6.43;3.67;;;2.40;99.90;;;;;;5057996;28;20452;-85
2021/12/06 01:32:46;;;;;;;5.40;3.93;;;2.20;99.90;;;;;;5050244;28;20206;-83
2021/12/06 01:40:39;;;;;;;7.25;4.13;;;2.10;99.90;;;;;;5039230;28;20228;-84
2021/12/06 01:43:08;;;;;;;7.55;4.43;;;2.10;99.90;;;;;;5039848;28;20282;-86
2021/12/06 01:45:35;;;;;;;3.90;3.13;;;2.10;99.90;;;;;;5058895;28;20272;-84
2021/12/06 01:48:01;;;;;;;6.72;4.13;;;2.00;99.90;;;;;;5057466;28;20284;-82
2021/12/06 01:50:29;;;;;;;4.50;3.83;;;2.00;99.90;;;;;;5056750;28;20415;-83
2021/12/06 01:52:58;;;;;;;8.57;3.70;;;2.00;99.90;;;;;;5057565;28;20448;-82
2021/12/06 01:55:27;;;;;;;4.97;3.70;;;1.90;99.90;;;;;;5055568;28;20459;-82
2021/12/06 01:57:57;;;;;;;5.60;3.30;;;1.90;99.90;;;;;;5056284;28;20475;-84
2021/12/06 02:00:38;;;;;;;4.97;3.37;;;1.80;99.90;;;;;;5057234;28;20315;-81
2021/12/06 02:03:06;;;;;;;4.15;3.75;;;1.80;99.90;;;;;;5057418;28;20452;-83
2021/12/06 02:05:35;;;;;;;5.72;3.63;;;1.70;99.90;;;;;;5058084;28;20295;-84
2021/12/06 02:08:02;;;;;;;8.40;3.87;;;1.70;99.90;;;;;;5056317;28;20202;-82
2021/12/06 02:10:29;;;;;;;5.37;3.60;;;1.60;99.90;;;;;;5055836;28;20482;-84
2021/12/06 02:12:56;;;;;;;6.22;4.65;;;1.50;99.90;;;;;;5056179;28;20483;-83
2021/12/06 02:15:37;;;;;;;6.68;4.10;;;1.50;99.90;;;;;;5056350;28;20288;-83
2021/12/06 02:18:10;;;;;;;6.30;4.70;;;1.50;99.90;;;;;;5056602;28;20224;-84
2021/12/06 02:20:46;;;;;;;9.20;4.72;;;1.50;99.90;;;;;;5055807;28;20233;-84
2021/12/06 02:23:14;;;;;;;7.25;4.60;;;1.50;99.90;;;;;;5057353;28;20267;-81
2021/12/06 02:25:41;;;;;;;5.72;4.70;;;1.50;99.90;;;;;;5056926;28;20204;-83
2021/12/06 02:28:08;;;;;;;6.75;4.38;;;1.40;99.90;;;;;;5055846;28;20212;-83
2021/12/06 02:30:35;;;;;;;7.65;4.78;;;1.50;99.90;;;;;;5056116;28;20222;-83
2021/12/06 02:33:02;;;;;;;6.87;4.57;;;1.50;99.90;;;;;;5056397;28;20352;-83
2021/12/06 02:35:29;;;;;;;8.98;6.40;;;1.50;99.90;;;;;;5056554;28;20453;-82
2021/12/06 02:37:57;;;;;;;5.97;5.10;;;1.40;99.90;;;;;;5058313;28;20678;-83
2021/12/06 02:40:28;;;;;;;7.07;4.95;;;1.40;99.90;;;;;;5059267;28;20229;-81
2021/12/06 02:42:56;;;;;;;5.25;4.40;;;1.40;99.90;;;;;;5060217;28;20733;-83
2021/12/06 02:45:25;;;;;;;6.30;4.90;;;1.40;99.90;;;;;;5060359;28;20243;-82
2021/12/06 02:47:53;;;;;;;7.35;5.30;;;1.30;99.90;;;;;;5059172;28;20476;-84
2021/12/06 02:50:23;;;;;;;8.30;5.47;;;1.30;99.90;;;;;;5059436;28;20326;-84
2021/12/06 02:52:51;;;;;;;8.15;5.35;;;1.20;99.90;;;;;;5059866;28;20226;-83
2021/12/06 02:55:26;;;;;;;6.43;5.22;;;1.20;99.90;;;;;;5057588;28;20277;-83
2021/12/06 02:57:57;;;;;;;9.77;5.78;;;1.20;99.90;;;;;;5043042;28;20717;-83
2021/12/06 03:00:26;;;;;;;7.35;5.47;;;1.20;99.90;;;;;;5058959;28;20253;-83
2021/12/06 03:02:53;;;;;;;7.20;5.25;;;1.20;99.90;;;;;;5059788;28;20290;-82
2021/12/06 03:05:20;;;;;;;8.40;5.57;;;1.10;99.90;;;;;;5060081;28;20292;-83
2021/12/06 03:07:51;;;;;;;7.28;5.60;;;1.00;99.90;;;;;;5060158;28;20636;-82
2021/12/06 03:10:19;;;;;;;8.48;5.72;;;1.00;99.90;;;;;;5059193;28;20231;-82
2021/12/06 03:12:46;;;;;;;7.32;5.65;;;1.00;99.90;;;;;;5059861;28;20215;-83
2021/12/06 03:15:16;;;;;;;7.10;5.82;;;1.00;99.90;;;;;;5059992;28;20299;-81
2021/12/06 03:17:45;;;;;;;7.93;5.50;;;1.00;99.90;;;;;;5059304;28;20231;-81
2021/12/06 03:20:14;;;;;;;8.13;5.47;;;1.00;99.90;;;;;;5059177;28;20217;-80
2021/12/06 03:22:42;;;;;;;8.17;6.03;;;1.00;99.90;;;;;;5059522;28;20213;-83
2021/12/06 03:25:10;;;;;;;8.90;6.35;;;1.00;99.90;;;;;;5059036;28;20451;-83
2021/12/06 03:27:37;;;;;;;6.88;5.85;;;1.00;99.90;;;;;;5060042;28;20202;-80
2021/12/06 03:30:06;;;;;;;9.73;7.53;;;1.00;99.90;;;;;;5058603;28;20217;-84
2021/12/06 03:32:35;;;;;;;9.15;7.50;;;0.90;99.90;;;;;;5058773;28;20204;-82
2021/12/06 03:35:02;;;;;;;8.45;5.55;;;0.70;99.90;;;;;;5059588;28;20202;-81
2021/12/06 03:37:29;;;;;;;8.75;6.90;;;0.70;99.90;;;;;;5059007;28;20223;-82
2021/12/06 03:39:56;;;;;;;10.50;7.38;;;0.70;99.90;;;;;;5058854;28;20219;-83
2021/12/06 03:42:25;;;;;;;8.25;7.30;;;0.70;99.90;;;;;;5058741;28;20275;-83
2021/12/06 03:44:52;;;;;;;9.60;7.22;;;0.60;99.90;;;;;;5059267;28;20204;-81
2021/12/06 03:47:24;;;;;;;8.40;7.35;;;0.60;99.90;;;;;;5058592;28;20226;-83
2021/12/06 03:49:53;;;;;;;10.27;7.25;;;0.60;99.90;;;;;;5058375;28;20431;-82
2021/12/06 03:52:20;;;;;;;13.40;7.20;;;0.60;99.90;;;;;;5058073;28;20203;-82
2021/12/06 03:54:49;;;;;;;8.43;6.88;;;0.70;99.90;;;;;;5059112;28;20235;-82
2021/12/06 03:57:16;;;;;;;8.32;6.80;;;0.60;99.90;;;;;;5058770;28;20265;-81
2021/12/06 03:59:44;;;;;;;9.07;7.28;;;0.60;99.90;;;;;;5059378;28;20609;-83
2021/12/06 04:02:11;;;;;;;10.45;8.27;;;0.60;99.90;;;;;;5058026;28;20303;-82
2021/12/06 04:04:38;;;;;;;11.77;7.35;;;0.60;99.90;;;;;;5058682;28;20706;-82
2021/12/06 04:07:07;;;;;;;9.80;8.25;;;0.60;99.90;;;;;;5058593;28;20287;-80
2021/12/06 04:09:34;;;;;;;13.52;10.10;;;0.50;99.90;;;;;;5057744;28;20223;-82
2021/12/06 04:12:01;;;;;;;11.85;7.68;;;0.50;99.90;;;;;;5057784;28;20223;-80
2021/12/06 04:14:28;;;;;;;9.75;8.57;;;0.60;99.90;;;;;;5058406;28;20205;-82
2021/12/06 04:16:55;;;;;;;11.07;9.20;;;0.60;99.90;;;;;;5057924;28;20564;-83
2021/12/06 04:19:22;;;;;;;10.70;8.48;;;0.50;99.90;;;;;;5057700;28;20734;-83
2021/12/06 04:21:50;;;;;;;12.32;9.45;;;0.50;99.90;;;;;;5057764;28;20282;-82
2021/12/06 04:24:19;;;;;;;13.07;8.60;;;0.50;99.90;;;;;;5058094;28;20274;-80
2021/12/06 04:26:47;;;;;;;10.65;9.02;;;0.50;99.90;;;;;;5057585;28;20751;-81
2021/12/06 04:29:15;;;;;;;9.75;8.43;;;0.60;99.90;;;;;;5057550;28;20292;-80
2021/12/06 04:31:47;;;;;;;13.48;10.57;;;0.60;99.90;;;;;;5057550;28;20205;-82
2021/12/06 04:34:14;;;;;;;12.93;10.07;;;0.50;99.90;;;;;;5058038;28;20287;-81
2021/12/06 04:36:43;;;;;;;12.57;9.15;;;0.50;99.90;;;;;;5058049;28;20287;-82
2021/12/06 04:39:12;;;;;;;11.38;9.10;;;0.50;99.90;;;;;;5057161;28;20221;-81
2021/12/06 04:41:40;;;;;;;17.30;9.95;;;0.60;99.90;;;;;;5058390;28;20940;-81
2021/12/06 04:44:08;;;;;;;12.77;8.45;;;0.60;99.90;;;;;;5063119;28;20279;-82
2021/12/06 04:46:35;;;;;;;12.50;9.27;;;0.60;99.90;;;;;;5057392;28;20264;-82
2021/12/06 04:49:02;;;;;;;14.10;10.05;;;0.50;99.90;;;;;;5057564;28;20203;-82
2021/12/06 04:51:30;;;;;;;17.35;10.00;;;0.50;99.90;;;;;;5056719;28;20228;-82
2021/12/06 04:53:57;;;;;;;13.35;9.35;;;0.50;99.90;;;;;;5057078;28;20212;-82
2021/12/06 04:56:27;;;;;;;13.93;9.98;;;0.50;99.90;;;;;;5057349;28;20205;-82
2021/12/06 04:59:02;;;;;;;14.27;9.07;;;0.50;99.90;;;;;;5057537;28;20229;-82
2021/12/06 05:01:33;;;;;;;14.30;10.30;;;0.60;99.90;;;;;;5055364;28;20246;-82
2021/12/06 05:04:04;;;;;;;13.18;10.23;;;0.50;99.90;;;;;;5057216;28;20197;-82
2021/12/06 05:06:35;;;;;;;12.85;8.50;;;0.50;99.90;;;;;;5058637;28;20212;-87
2021/12/06 05:09:09;;;;;;;13.32;9.55;;;0.50;99.90;;;;;;5056514;28;20203;-85
2021/12/06 05:11:36;;;;;;;8.48;6.15;;;0.60;99.90;;;;;;5053853;28;20805;-80
2021/12/06 05:14:05;;;;;;;14.30;6.70;;;1.10;99.90;;;;;;5055146;28;20446;-78
2021/12/06 05:16:35;;;;;;;9.60;6.83;;;5.50;99.90;;;;;;5051699;28;20206;-78
2021/12/06 05:19:02;;;;;;;10.00;6.47;;;6.00;99.90;;;;;;5051868;28;20489;-78
2021/12/06 05:21:28;;;;;;;9.43;7.17;;;6.60;99.90;;;;;;5053851;28;20560;-83
2021/12/06 05:23:56;;;;;;;10.07;7.90;;;5.90;99.90;;;;;;5054723;28;20543;-82
2021/12/06 05:26:22;;;;;;;8.13;6.57;;;4.90;99.90;;;;;;5055162;28;20499;-83
2021/12/06 05:28:52;;;;;;;9.23;7.40;;;4.20;99.90;;;;;;5054795;28;20474;-83
2021/12/06 05:31:22;;;;;;;12.80;7.33;;;3.60;99.90;;;;;;5054556;28;20515;-85
2021/12/06 05:33:53;;;;;;;11.70;9.57;;;3.10;99.90;;;;;;5055228;28;20460;-82
2021/12/06 05:36:20;;;;;;;12.87;8.53;;;2.70;99.90;;;;;;5054748;28;20428;-81
2021/12/06 05:38:49;;;;;;;11.63;9.40;;;2.40;99.90;;;;;;5052981;28;20567;-81
2021/12/06 05:41:16;;;;;;;10.33;7.57;;;2.20;99.90;;;;;;5053252;28;20555;-82
2021/12/06 05:43:43;;;;;;;17.63;9.23;;;2.20;99.90;;;;;;5055506;28;20547;-82
2021/12/06 05:46:10;;;;;;;14.65;9.55;;;2.00;99.90;;;;;;5054928;28;20539;-82
2021/12/06 05:48:38;;;;;;;12.15;8.85;;;2.00;99.90;;;;;;5054687;28;20292;-82
2021/12/06 05:51:05;;;;;;;13.63;9.83;;;1.90;99.90;;;;;;5054257;28;20293;-84
2021/12/06 05:53:33;;;;;;;20.80;12.70;;;1.80;99.90;;;;;;5055217;28;20947;-82
2021/12/06 05:56:00;;;;;;;21.75;12.68;;;1.70;99.90;;;;;;5057593;28;20448;-83
2021/12/06 05:58:28;;;;;;;14.65;10.60;;;1.60;99.90;;;;;;5055766;28;20228;-80
2021/12/06 06:00:55;;;;;;;11.30;9.00;;;1.60;99.90;;;;;;5056425;28;20315;-82
2021/12/06 06:03:23;;;;;;;27.33;10.70;;;1.70;99.90;;;;;;5060806;28;20480;-83
2021/12/06 06:05:52;;;;;;;11.10;9.70;;;1.70;99.90;;;;;;5060735;28;20450;-80
2021/12/06 06:08:19;;;;;;;11.80;9.52;;;1.70;99.90;;;;;;5039539;28;20266;-88
2021/12/06 06:10:47;;;;;;;18.60;11.15;;;1.70;99.90;;;;;;5038190;28;20236;-79
2021/12/06 06:13:16;;;;;;;14.82;10.85;;;1.80;99.90;;;;;;5030173;28;20216;-78
2021/12/06 06:15:44;;;;;;;15.77;9.88;;;1.80;99.90;;;;;;5056736;28;20312;-80
2021/12/06 06:18:11;;;;;;;23.98;12.40;;;1.80;99.90;;;;;;5053214;28;20217;-80
2021/12/06 06:20:41;;;;;;;16.17;11.33;;;1.80;99.90;;;;;;5070335;28;20228;-80
2021/12/06 06:23:09;;;;;;;27.77;10.53;;;1.80;99.90;;;;;;5051048;28;20543;-79
2021/12/06 06:25:38;;;;;;;28.52;15.07;;;1.70;99.90;;;;;;5042582;28;20449;-79
2021/12/06 06:28:05;;;;;;;25.50;14.32;;;1.60;99.90;;;;;;5049880;28;20198;-85
2021/12/06 06:30:33;;;;;;;13.98;10.65;;;1.60;99.90;;;;;;5054620;28;20222;-79
2021/12/06 06:33:01;;;;;;;21.42;14.05;;;1.60;99.90;;;;;;5056089;28;20240;-80
2021/12/06 06:35:28;;;;;;;18.75;12.68;;;1.60;99.90;;;;;;5057370;28;20206;-83
2021/12/06 06:37:56;;;;;;;25.45;17.55;;;1.50;99.90;;;;;;5057047;28;20703;-84
2021/12/06 06:40:24;;;;;;;17.65;11.52;;;1.40;99.90;;;;;;5055844;28;20241;-80
2021/12/06 06:42:51;;;;;;;18.88;13.35;;;1.40;99.90;;;;;;5055569;28;20270;-80
2021/12/06 06:45:21;;;;;;;13.63;11.02;;;1.40;99.90;;;;;;5056347;28;20739;-80
2021/12/06 06:47:49;;;;;;;16.02;11.02;;;1.20;99.90;;;;;;5055788;28;20230;-80
2021/12/06 06:50:17;;;;;;;16.92;11.27;;;1.20;99.90;;;;;;5054499;28;20228;-80
2021/12/06 06:52:44;;;;;;;18.15;10.73;;;1.00;99.90;;;;;;5052706;28;20208;-80
2021/12/06 06:55:12;;;;;;;16.80;11.75;;;1.00;99.90;;;;;;5054242;28;20244;-80
2021/12/06 06:57:41;;;;;;;14.20;10.35;;;0.90;99.90;;;;;;5055816;28;20210;-81
2021/12/06 07:00:12;;;;;;;13.98;10.75;;;0.90;99.90;;;;;;5053539;28;20251;-87
2021/12/06 07:02:39;;;;;;;18.65;12.73;;;0.90;99.90;;;;;;5054652;28;20565;-80
2021/12/06 07:05:07;;;;;;;20.10;12.90;;;0.80;99.90;;;;;;5054536;28;20288;-80
2021/12/06 07:07:34;;;;;;;13.55;10.85;;;0.80;99.90;;;;;;5053162;28;20211;-80
2021/12/06 07:10:01;;;;;;;20.13;14.20;;;0.70;99.90;;;;;;5056953;28;20312;-81
2021/12/06 07:12:28;;;;;;;32.53;20.58;;;0.80;99.90;;;;;;5056671;28;20211;-81
2021/12/06 07:14:56;;;;;;;26.85;16.15;;;0.60;99.90;;;;;;5059888;28;20236;-83
2021/12/06 07:17:23;;;;;;;22.05;14.85;;;0.70;99.90;;;;;;5053895;28;20214;-81
2021/12/06 07:19:50;;;;;;;21.42;13.45;;;0.70;99.90;;;;;;5054849;28;20938;-80
2021/12/06 07:22:17;;;;;;;19.27;12.63;;;0.70;99.90;;;;;;5050975;28;20220;-84
2021/12/06 07:24:44;;;;;;;20.05;13.35;;;0.70;99.90;;;;;;5054893;28;20204;-81
2021/12/06 07:27:11;;;;;;;16.02;11.95;;;0.80;99.90;;;;;;5050234;28;20213;-81
2021/12/06 07:29:38;;;;;;;19.40;13.38;;;0.80;99.90;;;;;;5049727;28;20328;-82
2021/12/06 07:32:07;;;;;;;18.65;13.38;;;0.80;99.90;;;;;;5053408;28;20236;-80
2021/12/06 07:34:36;;;;;;;33.53;15.75;;;0.90;99.90;;;;;;5052926;28;20212;-80
2021/12/06 07:37:04;;;;;;;18.50;13.97;;;0.90;99.90;;;;;;5054307;28;20260;-81
2021/12/06 07:39:31;;;;;;;20.80;13.30;;;1.00;99.90;;;;;;5054245;28;22222;-83
2021/12/06 07:41:59;;;;;;;19.95;14.13;;;1.00;99.90;;;;;;5043446;28;20323;-82
2021/12/06 07:44:50;;;;;;;22.15;13.07;;;1.00;99.90;;;;;;5046485;28;20209;-81
2021/12/06 07:47:23;;;;;;;24.75;14.18;;;0.90;99.90;;;;;;5052935;28;20254;-83
2021/12/06 07:49:58;;;;;;;22.65;14.50;;;1.10;99.90;;;;;;5041986;28;20396;-80
2021/12/06 07:52:27;;;;;;;24.88;14.80;;;0.90;99.90;;;;;;5045407;28;20665;-81
2021/12/06 07:54:59;;;;;;;21.23;13.25;;;0.80;99.90;;;;;;5046513;28;20207;-81
2021/12/06 07:57:26;;;;;;;21.45;14.75;;;1.00;99.90;;;;;;5049366;28;20214;-81
2021/12/06 07:59:57;;;;;;;28.95;17.33;;;1.20;99.90;;;;;;5055305;28;20229;-80
2021/12/06 08:02:28;;;;;;;30.48;18.77;;;1.30;99.90;;;;;;5045319;28;20205;-81
2021/12/06 08:05:29;;;;;;;42.00;19.85;;;1.30;99.90;;;;;;5054785;28;20201;-81
2021/12/06 08:07:49;;;;;;;36.13;21.42;;;1.30;99.90;;;;;;5043863;28;20260;-84
2021/12/06 08:10:16;;;;;;;38.72;21.23;;;1.50;99.90;;;;;;5055645;28;20220;-82
2021/12/06 08:12:43;;;;;;;46.97;22.90;;;1.50;99.90;;;;;;5055735;28;20632;-80
2021/12/06 08:18:11;;;;;;;45.33;19.45;;;1.70;99.90;;;;;;5043051;28;20198;-84
2021/12/06 08:20:43;;;;;;;39.43;22.53;;;1.90;99.90;;;;;;5053650;28;20221;-81
2021/12/06 08:23:28;;;;;;;29.58;18.80;;;1.80;99.90;;;;;;5055552;28;20542;-81
2021/12/06 08:25:55;;;;;;;36.97;19.98;;;1.90;99.90;;;;;;5056688;28;20559;-80
2021/12/06 08:28:41;;;;;;;33.75;18.88;;;2.00;99.90;;;;;;5055476;28;20709;-80
2021/12/06 08:31:37;;;;;;;43.22;19.52;;;2.10;99.90;;;;;;5056628;28;20253;-82
2021/12/06 08:34:06;;;;;;;25.05;15.93;;;2.10;99.90;;;;;;5046900;28;20194;-82
2021/12/06 08:36:32;;;;;;;46.35;22.40;;;2.10;99.90;;;;;;5037591;28;20237;-80
2021/12/06 08:39:00;;;;;;;30.83;18.55;;;2.00;99.90;;;;;;5035486;28;20217;-82
2021/12/06 08:44:13;;;;;;;34.42;19.38;;;2.20;99.90;;;;;;5035622;28;20218;-82
2021/12/06 08:46:41;;;;;;;27.52;18.17;;;2.20;99.90;;;;;;5060592;28;20215;-82
2021/12/06 08:49:10;;;;;;;25.93;18.20;;;2.20;99.90;;;;;;5057809;28;20229;-81
2021/12/06 08:51:39;;;;;;;8.70;5.73;;;2.30;99.90;;;;;;5060770;28;20454;-79
2021/12/06 08:54:09;;;;;;;17.10;12.77;;;7.50;99.90;;;;;;5052866;28;20548;-79
2021/12/06 08:56:37;;;;;;;16.13;12.73;;;7.70;99.90;;;;;;5054269;28;20806;-81
2021/12/06 08:59:06;;;;;;;14.50;10.00;;;7.70;99.90;;;;;;5055342;28;21202;-80
2021/12/06 09:01:35;;;;;;;14.23;11.90;;;7.50;99.90;;;;;;5054587;28;20467;-85
2021/12/06 09:04:02;;;;;;;13.93;10.90;;;7.50;99.90;;;;;;5049698;28;20538;-85
2021/12/06 09:07:14;;;;;;;15.63;12.00;;;7.00;99.90;;;;;;5060910;28;20454;-83
2021/12/06 09:09:46;;;;;;;14.53;11.67;;;6.30;99.90;;;;;;5050538;28;20503;-82
2021/12/06 09:12:26;;;;;;;15.30;11.90;;;5.90;99.90;;;;;;5054265;28;20464;-83
2021/12/06 09:14:54;;;;;;;14.10;10.80;;;5.60;99.90;;;;;;5055488;28;20967;-81
2021/12/06 09:17:23;;;;;;;14.90;11.20;;;5.30;99.90;;;;;;5054107;28;20536;-80
2021/12/06 09:20:01;;;;;;;16.67;12.10;;;5.00;99.90;;;;;;5043320;28;20579;-83
2021/12/06 09:22:30;;;;;;;24.00;13.83;;;4.80;99.90;;;;;;5051124;28;20497;-83
2021/12/06 09:25:00;;;;;;;16.27;12.20;;;4.50;99.90;;;;;;5050220;28;20496;-83
2021/12/06 09:27:30;;;;;;;23.37;15.43;;;4.40;99.90;;;;;;5049315;28;20450;-83
2021/12/06 09:29:58;;;;;;;29.83;15.67;;;4.10;99.90;;;;;;5053058;28;20990;-83
2021/12/06 09:35:29;;;;;;;17.77;12.83;;;4.10;99.90;;;;;;5051536;28;20448;-85
2021/12/06 09:38:00;;;;;;;26.63;12.43;;;4.10;99.90;;;;;;5059491;28;20952;-80
2021/12/06 09:40:30;;;;;;;17.00;12.97;;;3.90;99.90;;;;;;5060324;28;20560;-80
2021/12/06 09:45:51;;;;;;;15.30;11.73;;;4.00;99.90;;;;;;5058256;28;20510;-81
2021/12/06 09:48:19;;;;;;;16.10;11.53;;;4.00;99.90;;;;;;5055815;28;20436;-83
2021/12/06 09:51:10;;;;;;;14.43;11.27;;;3.90;99.90;;;;;;5054344;28;20457;-81
2021/12/06 09:53:44;;;;;;;25.80;14.17;;;3.90;99.90;;;;;;5053085;28;20441;-81
2021/12/06 09:56:23;;;;;;;18.23;11.87;;;3.80;99.90;;;;;;5055505;28;20494;-80
2021/12/06 09:59:11;;;;;;;15.23;12.13;;;3.80;99.90;;;;;;5051111;28;20472;-83
2021/12/06 10:04:35;;;;;;;25.90;14.00;;;4.00;99.90;;;;;;5054070;28;20484;-82
2021/12/06 10:07:02;;;;;;;14.00;11.93;;;4.10;99.90;;;;;;5050240;28;20436;-83
2021/12/06 10:09:31;;;;;;;33.43;15.67;;;4.10;99.90;;;;;;5053798;28;20444;-80
2021/12/06 10:12:00;;;;;;;29.53;15.67;;;4.00;99.90;;;;;;5055243;28;20510;-81
2021/12/06 10:14:26;;;;;;;15.70;12.60;;;4.10;99.90;;;;;;5056721;28;20452;-81
2021/12/06 10:16:54;;;;;;;18.13;14.90;;;4.00;99.90;;;;;;5051824;28;20548;-83
2021/12/06 10:19:21;;;;;;;32.53;14.50;;;4.20;99.90;;;;;;5046183;28;20485;-82
2021/12/06 10:21:49;;;;;;;86.37;22.77;;;4.10;99.90;;;;;;5050703;28;20959;-83
2021/12/06 10:24:20;;;;;;;59.13;20.40;;;4.00;99.90;;;;;;5040193;28;20515;-81
2021/12/06 10:26:48;;;;;;;24.53;14.70;;;3.90;99.90;;;;;;5050291;28;20479;-82
2021/12/06 10:31:43;;;;;;;17.77;15.27;;;4.30;99.90;;;;;;5090955;22;20858;-83
2021/12/06 10:34:31;;;;;;;19.53;14.50;;;4.50;99.90;;;;;;5019501;28;20601;-80
2021/12/06 10:36:58;;;;;;;22.13;15.23;;;4.60;99.90;;;;;;5044441;28;20563;-80
2021/12/06 10:39:43;;;;;;;44.27;18.77;;;4.50;99.90;;;;;;5041977;28;20492;-82
2021/12/06 10:42:26;;;;;;;32.50;15.97;;;4.50;99.90;;;;;;5032665;28;20453;-81
2021/12/06 10:44:55;;;;;;;38.20;19.50;;;4.40;99.90;;;;;;5031324;28;20453;-83
2021/12/06 10:50:22;;;;;;;26.00;18.17;;;4.50;99.90;;;;;;5007735;28;20463;-81
2021/12/06 11:02:29;;;;;;;27.17;15.30;;;5.60;99.90;;;;;;5011301;28;20437;-82
2021/12/06 11:04:59;;;;;;;19.50;13.87;;;6.20;99.90;;;;;;5016852;28;20536;-83
2021/12/06 11:07:35;;;;;;;21.47;15.70;;;6.40;99.90;;;;;;5016852;28;21026;-83
2021/12/06 11:10:05;;;;;;;25.20;17.40;;;6.40;99.90;;;;;;5021739;28;20464;-84
2021/12/06 11:12:49;;;;;;;18.93;15.00;;;6.10;99.90;;;;;;5019377;28;20973;-83
2021/12/06 11:15:38;;;;;;;20.33;15.03;;;6.50;99.90;;;;;;5015676;28;20477;-84
2021/12/06 11:21:28;;;;;;;28.13;15.43;;;6.20;99.90;;;;;;5010771;28;20491;-81
2021/12/06 11:24:18;;;;;;;22.30;15.97;;;5.80;99.90;;;;;;4954092;28;20556;-83
2021/12/06 11:27:10;;;;;;;23.70;16.50;;;5.90;99.90;;;;;;4952831;28;20438;-84
2021/12/06 11:29:39;;;;;;;21.53;15.67;;;5.60;99.90;;;;;;5007053;28;20952;-82
2021/12/06 11:32:31;;;;;;;18.77;14.10;;;6.30;99.90;;;;;;5015577;28;21107;-81
2021/12/06 11:35:03;;;;;;;23.40;16.40;;;7.80;99.90;;;;;;5013822;28;20489;-84
2021/12/06 11:37:32;;;;;;;23.13;17.00;;;7.60;99.90;;;;;;5016557;28;20838;-84
2021/12/06 11:40:04;;;;;;;22.27;16.87;;;6.80;99.90;;;;;;5017847;28;20503;-84
2021/12/06 11:42:32;;;;;;;22.90;17.40;;;6.40;99.90;;;;;;5016523;28;20460;-86
2021/12/06 11:44:59;;;;;;;21.73;15.70;;;6.30;99.90;;;;;;5023415;28;20461;-85
2021/12/06 11:47:26;;;;;;;22.43;16.97;;;6.20;99.90;;;;;;5016197;28;20550;-84
2021/12/06 11:49:55;;;;;;;25.33;17.87;;;6.20;99.90;;;;;;5018825;28;20570;-84
2021/12/06 11:52:26;;;;;;;24.57;16.17;;;6.20;99.90;;;;;;5017332;28;20444;-87
2021/12/06 11:55:00;;;;;;;23.13;16.87;;;6.20;99.90;;;;;;5017197;28;21633;-86
2021/12/06 11:57:30;;;;;;;30.07;18.40;;;6.50;99.90;;;;;;5020298;28;20471;-85
2021/12/06 12:00:01;;;;;;;24.47;16.40;;;6.60;99.90;;;;;;5016162;28;20502;-86
2021/12/06 12:02:31;;;;;;;18.00;13.97;;;7.90;99.90;;;;;;5016237;28;20488;-84
2021/12/06 12:05:17;;;;;;;19.47;14.60;;;10.30;99.90;;;;;;5017992;28;20461;-86
2021/12/06 12:08:11;;;;;;;16.90;12.33;;;12.00;99.90;;;;;;5017756;28;20537;-87
2021/12/06 12:10:42;;;;;;;14.73;12.10;;;12.20;99.90;;;;;;5014324;28;20472;-85
2021/12/06 12:13:11;;;;;;;14.50;11.93;;;11.80;99.90;;;;;;5015061;28;20483;-84
2021/12/06 12:15:38;;;;;;;12.97;11.20;;;10.80;99.90;;;;;;5006427;28;20455;-83
2021/12/06 12:18:05;;;;;;;15.87;12.40;;;10.90;99.90;;;;;;5016681;28;20461;-85
2021/12/06 12:20:35;;;;;;;14.73;12.27;;;10.80;99.90;;;;;;5014530;28;20994;-85
2021/12/06 12:23:07;;;;;;;14.43;11.90;;;10.60;99.90;;;;;;5016725;28;20451;-83
2021/12/06 12:25:39;;;;;;;12.23;10.60;;;10.60;99.90;;;;;;5017422;28;20890;-84
2021/12/06 12:28:17;;;;;;;12.27;10.43;;;10.30;99.90;;;;;;5017875;28;20534;-85
2021/12/06 12:30:44;;;;;;;15.03;11.47;;;10.20;99.90;;;;;;5015451;28;20474;-85
2021/12/06 12:33:12;;;;;;;17.70;11.90;;;10.10;99.90;;;;;;5017139;28;20472;-84
2021/12/06 12:35:41;;;;;;;16.53;10.87;;;9.80;99.90;;;;;;5017386;28;20456;-87
2021/12/06 12:38:10;;;;;;;14.30;11.30;;;9.60;99.90;;;;;;5019271;28;20477;-86
2021/12/06 12:40:45;;;;;;;15.27;12.40;;;9.40;99.90;;;;;;5018554;28;20490;-85
2021/12/06 12:43:15;;;;;;;16.33;13.00;;;9.30;99.90;;;;;;5017954;28;20962;-85
2021/12/06 12:45:45;;;;;;;15.23;12.30;;;9.30;99.90;;;;;;5021779;28;20434;-86
2021/12/06 12:48:15;;;;;;;20.90;14.97;;;9.20;99.90;;;;;;5024792;28;20465;-88
2021/12/06 12:50:42;;;;;;;18.13;13.20;;;8.90;99.90;;;;;;5037193;28;20472;-86
2021/12/06 12:53:13;;;;;;;17.53;14.40;;;8.70;99.90;;;;;;5022380;28;20461;-85
2021/12/06 12:55:48;;;;;;;20.80;15.83;;;8.40;99.90;;;;;;5016889;28;20469;-85
2021/12/06 12:58:17;;;;;;;20.23;15.30;;;8.00;99.90;;;;;;5015687;28;20463;-88
2021/12/06 13:00:47;;;;;;;19.73;15.73;;;7.70;99.90;;;;;;5014517;28;20500;-85
2021/12/06 13:03:31;;;;;;;22.50;16.27;;;7.60;99.90;;;;;;5036025;28;20456;-85
2021/12/06 13:06:14;;;;;;;18.47;15.03;;;7.50;99.90;;;;;;5027485;28;20468;-86
2021/12/06 13:08:41;;;;;;;21.57;14.73;;;7.40;99.90;;;;;;5018196;28;20460;-88
2021/12/06 13:11:10;;;;;;;23.17;15.97;;;7.40;99.90;;;;;;5017987;28;20471;-86
2021/12/06 13:13:42;;;;;;;18.37;14.83;;;7.30;99.90;;;;;;5018723;28;20553;-86
2021/12/06 13:16:32;;;;;;;22.60;15.50;;;7.20;99.90;;;;;;5019068;28;20461;-86
2021/12/06 13:19:17;;;;;;;21.63;16.40;;;7.10;99.90;;;;;;5017934;28;20557;-85
2021/12/06 13:21:56;;;;;;;26.30;18.63;;;7.10;99.90;;;;;;5016683;28;20578;-84
2021/12/06 13:24:52;;;;;;;24.00;18.67;;;6.60;99.90;;;;;;5018764;28;20461;-87
2021/12/06 13:27:43;;;;;;;21.30;16.57;;;6.60;99.90;;;;;;5000928;28;21107;-86
2021/12/06 13:30:31;;;;;;;21.20;16.90;;;6.60;99.90;;;;;;5014578;28;20948;-84
2021/12/06 13:33:00;;;;;;;22.00;16.27;;;6.60;99.90;;;;;;5017200;28;20857;-85
2021/12/06 13:35:46;;;;;;;19.90;16.67;;;6.50;99.90;;;;;;5017441;28;20700;-85
2021/12/06 13:38:19;;;;;;;22.97;16.50;;;6.30;99.90;;;;;;5012495;28;20539;-86
2021/12/06 13:41:10;;;;;;;21.93;16.43;;;6.40;99.90;;;;;;5014279;28;20503;-83